METAR Data
IDs: Format: Raw Decoded Include TAF

Data at: 0951 UTC 13 Aug 2022

LKKU 130900Z 36014KT 9999 FEW028 23/16 Q1014